Time;durP1;ratioP1;P1;durP2;ratioP2;P2;SDS_P1;SDS_P2;PMS_P1;PMS_P2;Temp;Humidity;BMP_temperature;BMP_pressure;BME280_temperature;BME280_humidity;BME280_pressure;Samples;Min_cycle;Max_cycle;Signal;HPM_P1;HPM_P2
2024/01/30 00:01:31;;;;;;;22.02;16.40;;;;;;;;;;5092860;28;20188;-67
2024/01/30 00:04:00;;;;;;;27.33;18.35;;;;;;;;;;5092469;28;20401;-67
2024/01/30 00:06:29;;;;;;;30.10;17.98;;;;;;;;;;5093158;28;20229;-67
2024/01/30 00:08:57;;;;;;;26.65;16.92;;;;;;;;;;5093629;28;20199;-67
2024/01/30 00:11:26;;;;;;;25.13;17.50;;;;;;;;;;5093744;28;20199;-67
2024/01/30 00:13:54;;;;;;;25.30;17.30;;;;;;;;;;5093839;28;20218;-67
2024/01/30 00:16:23;;;;;;;31.08;17.70;;;;;;;;;;5093509;28;20566;-67
2024/01/30 00:18:52;;;;;;;25.98;16.80;;;;;;;;;;5093275;28;20248;-67
2024/01/30 00:21:22;;;;;;;28.65;16.15;;;;;;;;;;5077083;28;20765;-67
2024/01/30 00:23:50;;;;;;;20.77;16.38;;;;;;;;;;5091506;28;20683;-67
2024/01/30 00:26:18;;;;;;;23.60;16.30;;;;;;;;;;5093070;28;20231;-67
2024/01/30 00:28:46;;;;;;;25.10;16.70;;;;;;;;;;5091421;28;20200;-67
2024/01/30 00:31:14;;;;;;;27.10;16.90;;;;;;;;;;5077563;28;20208;-67
2024/01/30 00:33:43;;;;;;;28.33;16.48;;;;;;;;;;5075578;28;20212;-67
2024/01/30 00:36:11;;;;;;;33.22;19.80;;;;;;;;;;5072871;28;20207;-67
2024/01/30 00:38:41;;;;;;;28.30;18.48;;;;;;;;;;5072961;28;20204;-67
2024/01/30 00:41:10;;;;;;;31.13;18.98;;;;;;;;;;5087036;28;20208;-67
2024/01/30 00:43:38;;;;;;;33.20;19.70;;;;;;;;;;5092546;28;20997;-67
2024/01/30 00:46:06;;;;;;;26.33;16.95;;;;;;;;;;5107855;28;20219;-67
2024/01/30 00:48:34;;;;;;;24.92;17.55;;;;;;;;;;5092728;28;20210;-67
2024/01/30 00:51:03;;;;;;;26.85;17.60;;;;;;;;;;5081782;28;20203;-68
2024/01/30 00:53:31;;;;;;;29.45;17.50;;;;;;;;;;5090534;28;20222;-68
2024/01/30 00:56:00;;;;;;;27.88;17.27;;;;;;;;;;5075191;28;20211;-68
2024/01/30 00:58:28;;;;;;;48.00;24.38;;;;;;;;;;5071211;28;20207;-68
2024/01/30 01:00:57;;;;;;;47.95;22.75;;;;;;;;;;5072269;28;20200;-68
2024/01/30 01:03:25;;;;;;;35.50;20.77;;;;;;;;;;5071391;28;20204;-68
2024/01/30 01:05:53;;;;;;;38.83;21.27;;;;;;;;;;5070506;28;20276;-68
2024/01/30 01:08:21;;;;;;;32.60;17.95;;;;;;;;;;5071945;28;20282;-68
2024/01/30 01:10:49;;;;;;;31.92;18.00;;;;;;;;;;5083432;28;20639;-69
2024/01/30 01:13:19;;;;;;;37.72;18.20;;;;;;;;;;5092305;28;20207;-68
2024/01/30 01:15:48;;;;;;;25.20;17.33;;;;;;;;;;5092893;28;20378;-69
2024/01/30 01:18:16;;;;;;;37.80;20.70;;;;;;;;;;5091967;28;20207;-69
2024/01/30 01:20:45;;;;;;;30.70;19.40;;;;;;;;;;5091842;28;20605;-69
2024/01/30 01:23:13;;;;;;;23.98;17.55;;;;;;;;;;5070388;28;20670;-69
2024/01/30 01:25:41;;;;;;;30.77;18.80;;;;;;;;;;5071819;28;20200;-69
2024/01/30 01:28:09;;;;;;;28.13;16.33;;;;;;;;;;5071369;28;20203;-69
2024/01/30 01:30:39;;;;;;;29.35;16.92;;;;;;;;;;5081223;28;20199;-69
2024/01/30 01:33:07;;;;;;;32.92;19.48;;;;;;;;;;5091604;28;20209;-68
2024/01/30 01:35:35;;;;;;;27.48;17.98;;;;;;;;;;5092214;28;20210;-69
2024/01/30 01:38:03;;;;;;;19.83;15.35;;;;;;;;;;5091764;28;20557;-69
2024/01/30 01:40:31;;;;;;;30.90;16.85;;;;;;;;;;5092079;28;20379;-69
2024/01/30 01:43:00;;;;;;;26.17;15.55;;;;;;;;;;5091663;28;20203;-69
2024/01/30 01:45:30;;;;;;;22.65;15.45;;;;;;;;;;5092347;28;20199;-69
2024/01/30 01:48:00;;;;;;;30.45;17.45;;;;;;;;;;5106701;28;20681;-69
2024/01/30 01:50:28;;;;;;;31.15;18.15;;;;;;;;;;5087356;28;20198;-69
2024/01/30 01:52:57;;;;;;;26.42;17.95;;;;;;;;;;5090987;28;20199;-69
2024/01/30 01:55:27;;;;;;;36.95;20.35;;;;;;;;;;5091194;28;20199;-69
2024/01/30 01:57:56;;;;;;;38.00;19.25;;;;;;;;;;5070382;28;20227;-69
2024/01/30 02:00:25;;;;;;;57.53;25.33;;;;;;;;;;5087703;28;20203;-66
2024/01/30 02:02:54;;;;;;;32.97;20.02;;;;;;;;;;5094757;28;20195;-66
2024/01/30 02:05:24;;;;;;;37.90;18.90;;;;;;;;;;5095314;28;20278;-66
2024/01/30 02:07:53;;;;;;;27.75;17.98;;;;;;;;;;5097734;28;20207;-65
2024/01/30 02:10:21;;;;;;;25.58;17.38;;;;;;;;;;5097831;28;20271;-66
2024/01/30 02:12:50;;;;;;;28.20;17.98;;;;;;;;;;5098478;28;20298;-65
2024/01/30 02:15:18;;;;;;;30.23;17.88;;;;;;;;;;5097843;28;20723;-67
2024/01/30 02:17:46;;;;;;;32.88;19.60;;;;;;;;;;5098349;28;20287;-65
2024/01/30 02:20:14;;;;;;;24.60;16.48;;;;;;;;;;5097858;28;20310;-65
2024/01/30 02:22:44;;;;;;;27.88;17.52;;;;;;;;;;5096095;28;20279;-65
2024/01/30 02:25:12;;;;;;;37.65;18.05;;;;;;;;;;5098802;28;20700;-65
2024/01/30 02:27:40;;;;;;;37.85;20.40;;;;;;;;;;5097686;28;20306;-66
2024/01/30 02:30:09;;;;;;;38.17;20.08;;;;;;;;;;5098259;28;20251;-65
2024/01/30 02:32:37;;;;;;;40.78;20.42;;;;;;;;;;5097949;28;20333;-65
2024/01/30 02:35:06;;;;;;;42.60;20.75;;;;;;;;;;5098521;28;20286;-65
2024/01/30 02:37:34;;;;;;;35.20;18.02;;;;;;;;;;5096347;28;20255;-66
2024/01/30 02:40:03;;;;;;;33.55;17.80;;;;;;;;;;5097286;28;20702;-65
2024/01/30 02:42:31;;;;;;;32.63;18.65;;;;;;;;;;5098092;28;20293;-66
2024/01/30 02:45:00;;;;;;;35.72;20.80;;;;;;;;;;5097293;28;20294;-65
2024/01/30 02:47:28;;;;;;;35.38;18.05;;;;;;;;;;5097786;28;20302;-68
2024/01/30 02:49:56;;;;;;;36.30;18.42;;;;;;;;;;5097573;28;20266;-65
2024/01/30 02:52:24;;;;;;;30.80;17.48;;;;;;;;;;5097739;28;20611;-65
2024/01/30 02:54:52;;;;;;;35.97;18.25;;;;;;;;;;5096757;28;20721;-65
2024/01/30 02:57:22;;;;;;;42.13;20.10;;;;;;;;;;5097592;28;20298;-65
2024/01/30 02:59:50;;;;;;;51.25;22.08;;;;;;;;;;5097813;28;20263;-65
2024/01/30 03:02:18;;;;;;;41.65;21.48;;;;;;;;;;5098566;28;20427;-67
2024/01/30 03:04:46;;;;;;;49.40;21.50;;;;;;;;;;5099397;28;20286;-66
2024/01/30 03:07:14;;;;;;;58.40;24.73;;;;;;;;;;5100470;28;20310;-65
2024/01/30 03:09:43;;;;;;;72.45;24.58;;;;;;;;;;5100699;28;20278;-65
2024/01/30 03:12:12;;;;;;;63.80;28.83;;;;;;;;;;5101698;28;20290;-65
2024/01/30 03:14:41;;;;;;;56.30;23.75;;;;;;;;;;5101279;28;20716;-65
2024/01/30 03:17:10;;;;;;;41.20;21.38;;;;;;;;;;5101870;28;20243;-65
2024/01/30 03:19:38;;;;;;;48.40;22.27;;;;;;;;;;5100856;28;20647;-68
2024/01/30 03:22:06;;;;;;;44.05;22.88;;;;;;;;;;5102435;28;20287;-65
2024/01/30 03:24:34;;;;;;;43.20;22.88;;;;;;;;;;5100830;28;20299;-65
2024/01/30 03:27:03;;;;;;;35.30;21.17;;;;;;;;;;5101253;28;20779;-65
2024/01/30 03:29:34;;;;;;;35.78;18.77;;;;;;;;;;5100579;28;20199;-65
2024/01/30 03:32:04;;;;;;;34.25;19.65;;;;;;;;;;5116489;28;20279;-65
2024/01/30 03:34:33;;;;;;;31.70;21.55;;;;;;;;;;5101497;28;20290;-65
2024/01/30 03:37:01;;;;;;;28.98;17.23;;;;;;;;;;5117431;28;20279;-65
2024/01/30 03:39:29;;;;;;;27.60;19.92;;;;;;;;;;5100554;28;20700;-65
2024/01/30 03:41:57;;;;;;;22.55;16.73;;;;;;;;;;5101789;28;20259;-65
2024/01/30 03:44:25;;;;;;;27.25;17.27;;;;;;;;;;5101410;28;20278;-65
2024/01/30 03:46:53;;;;;;;23.77;15.77;;;;;;;;;;5101355;28;20729;-65
2024/01/30 03:49:23;;;;;;;21.08;15.88;;;;;;;;;;5100091;28;20271;-65
2024/01/30 03:51:51;;;;;;;22.95;16.45;;;;;;;;;;5100785;28;20251;-65
2024/01/30 03:54:19;;;;;;;27.65;16.02;;;;;;;;;;5100356;28;20286;-65
2024/01/30 03:56:48;;;;;;;26.10;17.75;;;;;;;;;;5099779;28;20294;-64
2024/01/30 03:59:17;;;;;;;25.60;17.67;;;;;;;;;;5115426;28;20263;-65
2024/01/30 04:01:48;;;;;;;27.65;18.88;;;;;;;;;;5100596;28;20279;-65
2024/01/30 04:04:16;;;;;;;32.60;20.75;;;;;;;;;;5114867;28;20239;-65
2024/01/30 04:06:45;;;;;;;36.38;24.17;;;;;;;;;;5100361;28;20281;-65
2024/01/30 04:09:14;;;;;;;31.83;21.70;;;;;;;;;;5116439;28;20271;-64
2024/01/30 04:11:42;;;;;;;32.72;22.35;;;;;;;;;;5100680;28;20274;-64
2024/01/30 04:14:11;;;;;;;33.80;22.25;;;;;;;;;;5100031;28;20290;-65
2024/01/30 04:16:39;;;;;;;29.15;20.98;;;;;;;;;;5099461;28;20316;-65
2024/01/30 04:19:07;;;;;;;30.27;20.92;;;;;;;;;;5100310;28;20306;-64
2024/01/30 04:21:35;;;;;;;26.98;20.17;;;;;;;;;;5099055;28;20270;-64
2024/01/30 04:24:05;;;;;;;27.05;19.48;;;;;;;;;;5099920;28;20254;-65
2024/01/30 04:26:33;;;;;;;30.88;21.02;;;;;;;;;;5099947;28;20266;-65
2024/01/30 04:29:02;;;;;;;26.65;20.40;;;;;;;;;;5099400;28;20302;-65
2024/01/30 04:31:30;;;;;;;28.35;20.63;;;;;;;;;;5099749;28;20274;-64
2024/01/30 04:33:58;;;;;;;31.55;21.90;;;;;;;;;;5112800;28;20286;-67
2024/01/30 04:36:26;;;;;;;35.22;24.80;;;;;;;;;;5100599;28;20251;-64
2024/01/30 04:38:54;;;;;;;31.05;20.75;;;;;;;;;;5115898;28;20278;-64
2024/01/30 04:41:26;;;;;;;29.02;20.98;;;;;;;;;;5099408;28;20251;-64
2024/01/30 04:43:54;;;;;;;29.77;20.55;;;;;;;;;;5099252;28;20250;-65
2024/01/30 04:46:22;;;;;;;28.73;20.83;;;;;;;;;;5099669;28;20309;-65
2024/01/30 04:48:50;;;;;;;29.40;21.25;;;;;;;;;;5098779;28;20267;-65
2024/01/30 04:51:18;;;;;;;30.15;20.20;;;;;;;;;;5098278;28;20244;-68
2024/01/30 04:53:46;;;;;;;39.38;25.70;;;;;;;;;;5093287;28;20290;-65
2024/01/30 04:56:15;;;;;;;42.78;25.35;;;;;;;;;;5098839;28;20294;-64
2024/01/30 04:58:44;;;;;;;44.22;27.23;;;;;;;;;;5099335;28;20286;-65
2024/01/30 05:01:16;;;;;;;41.80;27.13;;;;;;;;;;5098695;28;20278;-64
2024/01/30 05:03:45;;;;;;;38.85;24.98;;;;;;;;;;5097267;28;20263;-64
2024/01/30 05:06:13;;;;;;;35.17;24.40;;;;;;;;;;5099313;28;20298;-64
2024/01/30 05:08:41;;;;;;;34.17;22.63;;;;;;;;;;5098780;28;20302;-64
2024/01/30 05:11:10;;;;;;;33.35;22.85;;;;;;;;;;5099666;28;20294;-65
2024/01/30 05:13:39;;;;;;;33.80;22.75;;;;;;;;;;5114995;28;20288;-65
2024/01/30 05:16:08;;;;;;;36.58;20.48;;;;;;;;;;5099933;28;20259;-64
2024/01/30 05:18:37;;;;;;;31.70;20.45;;;;;;;;;;5099976;28;20628;-64
2024/01/30 05:21:05;;;;;;;28.30;20.33;;;;;;;;;;5100024;28;20266;-65
2024/01/30 05:23:33;;;;;;;30.10;20.02;;;;;;;;;;5099187;28;20255;-64
2024/01/30 05:26:02;;;;;;;23.88;18.98;;;;;;;;;;5099232;28;20605;-64
2024/01/30 05:28:30;;;;;;;26.98;20.50;;;;;;;;;;5099401;28;20279;-65
2024/01/30 05:30:59;;;;;;;27.40;20.77;;;;;;;;;;5099335;28;20286;-66
2024/01/30 05:33:28;;;;;;;26.85;18.83;;;;;;;;;;5099878;28;20282;-64
2024/01/30 05:35:56;;;;;;;25.73;19.10;;;;;;;;;;5114545;28;20286;-65
2024/01/30 05:38:25;;;;;;;33.15;21.75;;;;;;;;;;5099365;28;20254;-64
2024/01/30 05:40:53;;;;;;;28.75;20.13;;;;;;;;;;5099919;28;20337;-64
2024/01/30 05:43:21;;;;;;;30.10;20.40;;;;;;;;;;5098903;28;20286;-65
2024/01/30 05:45:50;;;;;;;31.65;20.70;;;;;;;;;;5099609;28;20255;-65
2024/01/30 05:48:18;;;;;;;28.63;19.77;;;;;;;;;;5099780;28;20275;-67
2024/01/30 05:50:48;;;;;;;28.05;20.38;;;;;;;;;;5098766;28;20255;-64
2024/01/30 05:53:16;;;;;;;29.85;19.85;;;;;;;;;;5098806;28;20263;-65
2024/01/30 05:55:44;;;;;;;34.15;20.10;;;;;;;;;;5114748;28;20314;-65
2024/01/30 05:58:14;;;;;;;27.15;18.75;;;;;;;;;;5098536;28;20293;-64
2024/01/30 06:00:42;;;;;;;27.90;20.45;;;;;;;;;;5098240;28;20251;-65
2024/01/30 06:03:10;;;;;;;34.22;20.50;;;;;;;;;;5097236;28;20254;-64
2024/01/30 06:05:38;;;;;;;30.38;21.38;;;;;;;;;;5097718;28;20262;-67
2024/01/30 06:08:08;;;;;;;34.45;23.75;;;;;;;;;;5098367;28;20290;-64
2024/01/30 06:10:37;;;;;;;30.15;19.92;;;;;;;;;;5099273;28;20304;-65
2024/01/30 06:13:05;;;;;;;35.75;19.73;;;;;;;;;;5098206;28;20712;-64
2024/01/30 06:15:33;;;;;;;29.30;19.05;;;;;;;;;;5097279;28;20251;-65
2024/01/30 06:18:02;;;;;;;31.52;22.02;;;;;;;;;;5096899;28;20262;-65
2024/01/30 06:20:30;;;;;;;27.27;19.83;;;;;;;;;;5095678;28;20309;-65
2024/01/30 06:22:59;;;;;;;29.08;20.27;;;;;;;;;;5094759;28;20270;-68
2024/01/30 06:25:28;;;;;;;32.75;20.58;;;;;;;;;;5097727;28;20271;-64
2024/01/30 06:27:57;;;;;;;30.40;23.08;;;;;;;;;;5077608;28;20295;-64
2024/01/30 06:30:25;;;;;;;36.47;24.92;;;;;;;;;;5097214;28;20298;-64
2024/01/30 06:32:53;;;;;;;39.65;26.90;;;;;;;;;;5099172;28;20721;-66
2024/01/30 06:35:22;;;;;;;38.55;25.55;;;;;;;;;;5098888;28;20282;-66
2024/01/30 06:37:50;;;;;;;36.17;24.80;;;;;;;;;;5103234;28;20531;-64
2024/01/30 06:40:18;;;;;;;36.47;26.00;;;;;;;;;;5102866;28;20255;-67
2024/01/30 06:42:48;;;;;;;36.70;24.50;;;;;;;;;;5103346;28;20281;-65
2024/01/30 06:45:16;;;;;;;36.28;25.42;;;;;;;;;;5102564;28;20254;-66
2024/01/30 06:47:44;;;;;;;36.70;24.70;;;;;;;;;;5098741;28;20290;-65
2024/01/30 06:50:13;;;;;;;36.75;23.85;;;;;;;;;;5102283;28;20275;-65
2024/01/30 06:52:41;;;;;;;32.53;23.27;;;;;;;;;;5103244;28;20285;-65
2024/01/30 06:55:10;;;;;;;34.35;23.45;;;;;;;;;;5118861;28;20255;-65
2024/01/30 06:57:38;;;;;;;35.55;22.67;;;;;;;;;;5102110;28;20305;-68
2024/01/30 07:00:08;;;;;;;32.17;26.00;;;;;;;;;;5087120;28;20834;-65
2024/01/30 07:02:37;;;;;;;32.42;23.27;;;;;;;;;;5104296;28;20510;-66
2024/01/30 07:05:05;;;;;;;36.15;23.80;;;;;;;;;;5102565;28;20298;-64
2024/01/30 07:07:34;;;;;;;34.05;21.55;;;;;;;;;;5087729;28;20259;-64
2024/01/30 07:10:02;;;;;;;34.72;22.30;;;;;;;;;;5104755;28;20271;-65
2024/01/30 07:12:32;;;;;;;27.00;21.35;;;;;;;;;;5105359;28;20290;-64
2024/01/30 07:15:00;;;;;;;27.63;18.73;;;;;;;;;;5107879;28;20708;-65
2024/01/30 07:17:30;;;;;;;37.08;25.52;;;;;;;;;;5103453;28;20274;-67
2024/01/30 07:19:58;;;;;;;47.35;28.92;;;;;;;;;;5104527;28;20448;-69
2024/01/30 07:22:27;;;;;;;43.10;24.48;;;;;;;;;;5103959;28;20259;-66
2024/01/30 07:24:55;;;;;;;39.25;22.33;;;;;;;;;;5103315;28;20255;-66
2024/01/30 07:27:23;;;;;;;29.83;20.23;;;;;;;;;;5103630;28;20290;-66
2024/01/30 07:29:52;;;;;;;27.33;20.58;;;;;;;;;;5104239;28;20215;-67
2024/01/30 07:32:20;;;;;;;29.73;20.27;;;;;;;;;;5109187;28;20238;-68
2024/01/30 07:34:50;;;;;;;32.00;20.00;;;;;;;;;;5093769;28;20647;-64
2024/01/30 07:37:19;;;;;;;32.08;21.25;;;;;;;;;;5100997;28;20287;-65
2024/01/30 07:39:47;;;;;;;33.28;23.90;;;;;;;;;;5107565;28;20227;-64
2024/01/30 07:42:16;;;;;;;28.30;20.50;;;;;;;;;;5112263;28;20223;-63
2024/01/30 07:44:44;;;;;;;38.22;23.75;;;;;;;;;;5106753;28;20235;-64
2024/01/30 07:47:12;;;;;;;30.52;23.20;;;;;;;;;;5110595;28;20250;-64
2024/01/30 07:49:40;;;;;;;27.35;21.35;;;;;;;;;;5089112;28;20279;-64
2024/01/30 07:52:10;;;;;;;34.10;22.75;;;;;;;;;;5093073;28;20234;-64
2024/01/30 07:54:42;;;;;;;36.25;21.83;;;;;;;;;;5109340;28;20331;-66
2024/01/30 07:57:10;;;;;;;36.03;23.42;;;;;;;;;;5112477;28;20251;-64
2024/01/30 07:59:38;;;;;;;38.55;23.27;;;;;;;;;;5104434;28;20203;-67
2024/01/30 08:02:07;;;;;;;57.97;31.10;;;;;;;;;;5087542;28;20254;-64
2024/01/30 08:04:36;;;;;;;34.95;22.85;;;;;;;;;;5105087;28;20356;-65
2024/01/30 08:07:04;;;;;;;38.63;23.63;;;;;;;;;;5108135;28;20235;-63
2024/01/30 08:09:33;;;;;;;45.28;27.50;;;;;;;;;;5100986;28;20256;-63
2024/01/30 08:12:02;;;;;;;41.17;25.23;;;;;;;;;;5102466;28;20282;-64
2024/01/30 08:14:30;;;;;;;47.25;26.75;;;;;;;;;;5094175;28;20274;-65
2024/01/30 08:16:59;;;;;;;51.70;28.88;;;;;;;;;;5123046;28;20677;-64
2024/01/30 08:19:27;;;;;;;47.35;30.15;;;;;;;;;;5098471;28;20274;-64
2024/01/30 08:21:55;;;;;;;54.42;34.38;;;;;;;;;;5091680;28;20255;-64
2024/01/30 08:24:23;;;;;;;46.72;31.23;;;;;;;;;;5083668;28;20255;-64
2024/01/30 08:26:53;;;;;;;47.72;32.47;;;;;;;;;;5086374;28;20279;-64
2024/01/30 08:29:21;;;;;;;40.67;28.35;;;;;;;;;;5087752;28;20283;-65
2024/01/30 08:31:49;;;;;;;40.75;25.15;;;;;;;;;;5096778;28;20274;-64
2024/01/30 08:34:18;;;;;;;45.58;28.02;;;;;;;;;;5108184;28;20230;-64
2024/01/30 08:36:46;;;;;;;48.35;30.13;;;;;;;;;;5105135;28;20681;-62
2024/01/30 08:39:14;;;;;;;50.00;30.05;;;;;;;;;;5094883;28;20213;-63
2024/01/30 08:41:42;;;;;;;47.22;28.50;;;;;;;;;;5086524;28;20264;-62
2024/01/30 08:44:12;;;;;;;47.13;29.67;;;;;;;;;;5094753;28;20708;-62
2024/01/30 08:46:40;;;;;;;56.00;32.38;;;;;;;;;;5101458;28;20294;-62
2024/01/30 08:49:08;;;;;;;49.92;31.30;;;;;;;;;;5101024;28;20290;-63
2024/01/30 08:51:37;;;;;;;49.22;29.65;;;;;;;;;;5097096;28;20282;-67
2024/01/30 08:54:05;;;;;;;71.45;29.67;;;;;;;;;;5109675;28;20740;-62
2024/01/30 08:56:33;;;;;;;40.67;27.85;;;;;;;;;;5100871;28;20287;-62
2024/01/30 08:59:01;;;;;;;40.38;25.33;;;;;;;;;;5098662;28;20282;-61
2024/01/30 09:01:31;;;;;;;50.08;25.95;;;;;;;;;;5099353;28;20262;-62
2024/01/30 09:03:59;;;;;;;34.60;23.55;;;;;;;;;;5103041;28;20266;-64
2024/01/30 09:06:28;;;;;;;35.47;24.30;;;;;;;;;;5107858;28;20231;-62
2024/01/30 09:08:57;;;;;;;37.60;25.45;;;;;;;;;;5108782;28;20254;-62
2024/01/30 09:11:26;;;;;;;35.72;24.55;;;;;;;;;;5108601;28;20267;-62
2024/01/30 09:13:54;;;;;;;32.25;23.55;;;;;;;;;;5107134;28;20257;-62
2024/01/30 09:16:22;;;;;;;29.38;22.05;;;;;;;;;;5104382;28;20254;-64
2024/01/30 09:18:51;;;;;;;34.65;25.00;;;;;;;;;;5099585;28;20330;-64
2024/01/30 09:21:20;;;;;;;39.63;26.00;;;;;;;;;;5099271;28;20243;-64
2024/01/30 09:23:48;;;;;;;34.85;24.23;;;;;;;;;;5097108;28;20843;-64
2024/01/30 09:26:16;;;;;;;39.20;25.88;;;;;;;;;;5096675;28;20259;-64
2024/01/30 09:28:44;;;;;;;34.80;26.05;;;;;;;;;;5097676;28;20287;-64
2024/01/30 09:31:13;;;;;;;33.58;24.60;;;;;;;;;;5106265;28;20577;-68
2024/01/30 09:33:41;;;;;;;28.35;21.80;;;;;;;;;;5077611;28;20211;-64
2024/01/30 09:36:11;;;;;;;28.33;22.50;;;;;;;;;;5082298;28;20279;-64
2024/01/30 09:38:39;;;;;;;31.60;22.95;;;;;;;;;;5085426;28;20277;-65
2024/01/30 09:41:11;;;;;;;34.20;23.23;;;;;;;;;;5098203;28;20274;-65
2024/01/30 09:43:39;;;;;;;33.83;22.40;;;;;;;;;;5115119;28;20697;-65
2024/01/30 09:46:09;;;;;;;39.92;24.83;;;;;;;;;;5102800;28;20319;-65
2024/01/30 09:48:38;;;;;;;35.97;23.98;;;;;;;;;;5103117;28;20733;-64
2024/01/30 09:51:06;;;;;;;28.20;21.23;;;;;;;;;;5091445;28;20321;-65
2024/01/30 09:53:36;;;;;;;27.67;19.95;;;;;;;;;;5084719;28;20202;-63
2024/01/30 09:56:04;;;;;;;37.75;21.98;;;;;;;;;;5096954;28;20259;-64
2024/01/30 09:58:33;;;;;;;31.90;23.38;;;;;;;;;;5098163;28;20287;-65
2024/01/30 10:01:01;;;;;;;27.15;22.35;;;;;;;;;;5102392;28;20274;-66
2024/01/30 10:03:29;;;;;;;28.40;21.50;;;;;;;;;;5106624;28;20732;-65
2024/01/30 10:05:57;;;;;;;29.35;20.70;;;;;;;;;;5102381;28;20286;-64
2024/01/30 10:08:29;;;;;;;32.10;23.17;;;;;;;;;;5099038;28;20277;-64
2024/01/30 10:10:59;;;;;;;32.53;24.35;;;;;;;;;;5098216;28;20302;-65
2024/01/30 10:13:27;;;;;;;30.40;21.35;;;;;;;;;;5095341;28;20279;-64
2024/01/30 10:15:56;;;;;;;27.25;19.58;;;;;;;;;;5106528;28;20295;-65
2024/01/30 10:18:24;;;;;;;28.75;20.83;;;;;;;;;;5103284;28;20302;-67
2024/01/30 10:20:53;;;;;;;24.80;18.75;;;;;;;;;;5109300;28;20248;-65
2024/01/30 10:23:22;;;;;;;22.42;17.83;;;;;;;;;;5077037;28;20230;-65
2024/01/30 10:25:52;;;;;;;27.33;18.85;;;;;;;;;;5085672;28;20231;-65
2024/01/30 10:28:22;;;;;;;21.73;18.05;;;;;;;;;;5087399;28;20223;-65
2024/01/30 10:30:59;;;;;;;20.75;16.38;;;;;;;;;;5090193;28;20242;-65
2024/01/30 10:33:28;;;;;;;20.67;15.73;;;;;;;;;;5105123;28;20238;-64
2024/01/30 10:36:00;;;;;;;19.23;14.73;;;;;;;;;;5124374;28;20226;-66
2024/01/30 10:38:30;;;;;;;19.05;13.00;;;;;;;;;;5104265;28;20270;-70
2024/01/30 10:40:58;;;;;;;16.65;13.55;;;;;;;;;;5102460;28;20298;-65
2024/01/30 10:43:34;;;;;;;15.80;13.55;;;;;;;;;;5096608;28;20266;-65
2024/01/30 10:46:05;;;;;;;17.55;12.60;;;;;;;;;;5099645;28;20274;-65
2024/01/30 10:48:39;;;;;;;14.07;11.25;;;;;;;;;;5104662;28;20341;-65
2024/01/30 10:51:08;;;;;;;14.70;11.93;;;;;;;;;;5101554;28;20210;-66
2024/01/30 10:53:36;;;;;;;13.55;11.02;;;;;;;;;;5099541;28;20278;-65
2024/01/30 10:56:05;;;;;;;14.45;11.48;;;;;;;;;;5100732;28;20255;-65
2024/01/30 10:58:34;;;;;;;13.80;11.52;;;;;;;;;;5107859;28;20233;-65
2024/01/30 11:01:03;;;;;;;10.82;9.73;;;;;;;;;;5103348;28;20270;-65
2024/01/30 11:03:34;;;;;;;12.18;9.35;;;;;;;;;;5109476;28;20278;-65
2024/01/30 11:06:02;;;;;;;10.73;9.68;;;;;;;;;;5097089;28;20263;-63
2024/01/30 11:08:33;;;;;;;10.70;9.55;;;;;;;;;;5099145;28;20666;-64
2024/01/30 11:11:01;;;;;;;14.93;9.43;;;;;;;;;;5097600;28;20274;-64
2024/01/30 11:13:31;;;;;;;10.05;8.82;;;;;;;;;;5094091;28;20741;-64
2024/01/30 11:16:03;;;;;;;10.63;9.55;;;;;;;;;;5096108;28;20282;-63
2024/01/30 11:18:32;;;;;;;12.05;8.57;;;;;;;;;;5095683;28;20191;-64
2024/01/30 11:21:01;;;;;;;11.80;10.60;;;;;;;;;;5093800;28;20184;-64
2024/01/30 11:23:30;;;;;;;11.23;10.13;;;;;;;;;;5097610;28;20801;-64
2024/01/30 11:25:58;;;;;;;10.73;9.82;;;;;;;;;;5099340;28;20286;-67
2024/01/30 11:28:33;;;;;;;11.85;10.73;;;;;;;;;;5100074;28;20701;-67
2024/01/30 11:31:06;;;;;;;12.32;10.90;;;;;;;;;;5084728;28;20222;-69
2024/01/30 11:33:35;;;;;;;13.32;10.70;;;;;;;;;;5078132;28;20251;-70
2024/01/30 11:36:06;;;;;;;10.48;9.65;;;;;;;;;;5064678;28;20207;-63
2024/01/30 11:38:34;;;;;;;18.33;10.70;;;;;;;;;;5089769;28;20220;-67
2024/01/30 11:41:03;;;;;;;10.77;9.95;;;;;;;;;;5096885;28;20227;-64
2024/01/30 11:43:33;;;;;;;11.00;10.15;;;;;;;;;;5110763;28;20243;-65
2024/01/30 11:46:02;;;;;;;11.25;10.27;;;;;;;;;;5107159;28;20294;-65
2024/01/30 11:48:32;;;;;;;11.40;10.45;;;;;;;;;;5107171;28;20259;-64
2024/01/30 11:51:00;;;;;;;12.27;10.47;;;;;;;;;;5106081;28;20270;-65
2024/01/30 11:53:28;;;;;;;11.10;10.10;;;;;;;;;;5108435;28;20650;-70
2024/01/30 11:55:57;;;;;;;11.88;10.38;;;;;;;;;;5107138;28;20682;-65
2024/01/30 11:58:26;;;;;;;10.90;9.95;;;;;;;;;;5098611;28;20652;-67
2024/01/30 12:00:56;;;;;;;10.83;9.93;;;;;;;;;;5104944;28;20263;-65
2024/01/30 12:03:24;;;;;;;11.77;10.90;;;;;;;;;;5097546;28;20675;-65
2024/01/30 12:05:58;;;;;;;10.93;9.83;;;;;;;;;;5099582;28;20691;-64
2024/01/30 12:08:27;;;;;;;11.93;10.97;;;;;;;;;;5097312;28;20643;-65
2024/01/30 12:11:01;;;;;;;12.03;10.93;;;;;;;;;;5095205;28;20613;-64
2024/01/30 12:13:29;;;;;;;12.07;10.97;;;;;;;;;;5098527;28;20692;-66
2024/01/30 12:15:58;;;;;;;11.73;10.73;;;;;;;;;;5097536;28;20712;-66
2024/01/30 12:18:26;;;;;;;11.87;10.87;;;;;;;;;;5097133;28;21006;-65
2024/01/30 12:21:05;;;;;;;12.67;11.60;;;;;;;;;;5098629;28;20670;-65
2024/01/30 12:23:33;;;;;;;11.70;10.90;;;;;;;;;;5098553;28;20669;-65
2024/01/30 12:26:03;;;;;;;16.63;14.37;;;;;;;;;;5100634;28;20750;-64
2024/01/30 12:28:31;;;;;;;15.77;14.20;;;;;;;;;;5109022;28;21193;-66
2024/01/30 12:31:03;;;;;;;14.53;13.27;;;;;;;;;;5109607;28;21226;-68
2024/01/30 12:33:31;;;;;;;14.23;13.03;;;;;;;;;;5108062;28;20603;-67
2024/01/30 12:36:03;;;;;;;13.40;12.40;;;;;;;;;;5104398;28;20711;-65
2024/01/30 12:38:32;;;;;;;13.93;12.97;;;;;;;;;;5109813;28;20622;-65
2024/01/30 12:41:01;;;;;;;14.03;12.80;;;;;;;;;;5105255;28;20678;-63
2024/01/30 12:43:29;;;;;;;12.97;11.90;;;;;;;;;;5079573;28;20632;-68
2024/01/30 12:45:58;;;;;;;13.43;12.50;;;;;;;;;;5115391;28;21185;-66
2024/01/30 12:48:28;;;;;;;14.73;13.67;;;;;;;;;;5095342;28;20686;-64
2024/01/30 12:50:57;;;;;;;12.43;11.43;;;;;;;;;;5097941;28;20704;-65
2024/01/30 12:53:25;;;;;;;15.33;13.50;;;;;;;;;;5101106;28;21127;-63
2024/01/30 12:55:55;;;;;;;14.90;13.50;;;;;;;;;;5104703;28;20739;-64
2024/01/30 12:58:23;;;;;;;17.30;15.87;;;;;;;;;;5103009;28;20764;-65
2024/01/30 13:00:51;;;;;;;15.37;14.27;;;;;;;;;;5107890;28;20663;-64
2024/01/30 13:03:19;;;;;;;16.60;15.23;;;;;;;;;;5104903;28;21214;-66
2024/01/30 13:05:48;;;;;;;38.27;14.73;;;;;;;;;;5108821;28;20649;-64
2024/01/30 13:08:16;;;;;;;15.03;13.57;;;;;;;;;;5107827;28;20713;-64
2024/01/30 13:10:44;;;;;;;17.43;13.63;;;;;;;;;;5107888;28;20645;-64
2024/01/30 13:13:13;;;;;;;15.57;12.63;;;;;;;;;;5104019;28;20703;-64
2024/01/30 13:15:42;;;;;;;14.20;12.90;;;;;;;;;;5085760;28;20689;-63
2024/01/30 13:18:10;;;;;;;15.47;13.80;;;;;;;;;;5103670;28;20624;-63
2024/01/30 13:20:38;;;;;;;13.27;12.17;;;;;;;;;;5104198;28;20719;-66
2024/01/30 13:23:06;;;;;;;14.40;12.83;;;;;;;;;;5104907;28;20673;-64
2024/01/30 13:25:35;;;;;;;12.27;11.40;;;;;;;;;;5104315;28;20688;-65
2024/01/30 13:28:03;;;;;;;12.37;11.43;;;;;;;;;;5103662;28;20697;-64
2024/01/30 13:30:33;;;;;;;12.17;11.27;;;;;;;;;;5105639;28;20641;-64
2024/01/30 13:33:02;;;;;;;13.23;12.13;;;;;;;;;;5101537;28;20966;-65
2024/01/30 13:35:30;;;;;;;13.67;12.47;;;;;;;;;;5102847;28;20688;-65
2024/01/30 13:37:59;;;;;;;12.93;11.73;;;;;;;;;;5101801;28;20694;-67
2024/01/30 13:40:27;;;;;;;12.60;11.60;;;;;;;;;;5103531;28;20703;-61
2024/01/30 13:42:55;;;;;;;12.70;11.47;;;;;;;;;;5105661;28;20653;-62
2024/01/30 13:45:23;;;;;;;12.37;11.23;;;;;;;;;;5102509;28;20732;-62
2024/01/30 13:47:53;;;;;;;11.83;10.83;;;;;;;;;;5094343;28;20722;-62
2024/01/30 13:50:21;;;;;;;11.20;10.37;;;;;;;;;;5097930;28;20717;-63
2024/01/30 13:52:49;;;;;;;13.87;12.60;;;;;;;;;;5101006;28;20740;-64
2024/01/30 13:55:18;;;;;;;11.00;10.10;;;;;;;;;;5103768;28;20728;-64
2024/01/30 13:57:46;;;;;;;15.90;11.67;;;;;;;;;;5102427;28;20724;-63
2024/01/30 14:00:16;;;;;;;12.17;11.13;;;;;;;;;;5099101;28;20704;-63
2024/01/30 14:02:44;;;;;;;11.83;10.87;;;;;;;;;;5093288;28;20673;-61
2024/01/30 14:05:14;;;;;;;11.50;10.60;;;;;;;;;;5085968;28;20676;-65
2024/01/30 14:07:42;;;;;;;13.27;12.13;;;;;;;;;;5092289;28;20724;-63
2024/01/30 14:10:11;;;;;;;11.87;10.67;;;;;;;;;;5093726;28;20604;-64
2024/01/30 14:12:39;;;;;;;10.87;9.80;;;;;;;;;;5097859;28;20740;-66
2024/01/30 14:15:10;;;;;;;11.00;10.13;;;;;;;;;;5104011;28;21047;-64
2024/01/30 14:17:38;;;;;;;11.30;10.40;;;;;;;;;;5094808;28;20675;-64
2024/01/30 14:20:07;;;;;;;12.27;11.17;;;;;;;;;;5098087;28;21065;-67
2024/01/30 14:22:37;;;;;;;11.10;10.10;;;;;;;;;;5091619;28;20625;-65
2024/01/30 14:25:06;;;;;;;12.20;10.30;;;;;;;;;;5087848;28;20609;-65
2024/01/30 14:27:34;;;;;;;11.60;10.80;;;;;;;;;;5076781;28;20622;-65